Time;durP1;ratioP1;P1;durP2;ratioP2;P2;SDS_P1;SDS_P2;PMS_P1;PMS_P2;Temp;Humidity;BMP_temperature;BMP_pressure;BME280_temperature;BME280_humidity;BME280_pressure;Samples;Min_cycle;Max_cycle;Signal;HPM_P1;HPM_P2
2024/02/28 00:02:08;;;;;;;91.00;31.33;;;-0.80;99.90;;;;;;5053107;28;20446;-70
2024/02/28 00:04:34;;;;;;;88.60;31.63;;;-0.80;99.90;;;;;;5053113;28;20530;-71
2024/02/28 00:07:00;;;;;;;94.30;32.88;;;-0.90;99.90;;;;;;5052758;28;20032;-70
2024/02/28 00:09:25;;;;;;;106.00;34.78;;;-1.00;99.90;;;;;;5052783;28;20040;-71
2024/02/28 00:11:51;;;;;;;93.38;30.98;;;-1.00;99.90;;;;;;5053040;28;20029;-71
2024/02/28 00:14:17;;;;;;;93.32;31.98;;;-1.00;99.90;;;;;;5052963;28;20028;-70
2024/02/28 00:16:43;;;;;;;93.45;32.72;;;-1.00;99.90;;;;;;5052843;28;20389;-70
2024/02/28 00:19:11;;;;;;;91.63;32.00;;;-1.10;99.90;;;;;;5052988;28;20102;-71
2024/02/28 00:21:37;;;;;;;97.78;33.22;;;-1.10;99.90;;;;;;5052944;28;20447;-70
2024/02/28 00:24:02;;;;;;;97.40;32.92;;;-1.10;99.90;;;;;;5052920;28;20056;-70
2024/02/28 00:26:28;;;;;;;101.82;33.90;;;-1.10;99.90;;;;;;5053014;28;20063;-70
2024/02/28 00:28:54;;;;;;;107.13;33.22;;;-1.10;99.90;;;;;;5052591;28;20036;-70
2024/02/28 00:31:21;;;;;;;87.65;31.42;;;-1.10;99.90;;;;;;5052370;28;20036;-70
2024/02/28 00:33:47;;;;;;;105.10;34.45;;;-1.10;99.90;;;;;;5052330;28;20028;-70
2024/02/28 00:36:13;;;;;;;93.90;31.45;;;-1.20;99.90;;;;;;5052780;28;20025;-70
2024/02/28 00:38:38;;;;;;;91.43;31.95;;;-1.20;99.90;;;;;;5052847;28;20037;-70
2024/02/28 00:41:04;;;;;;;96.22;32.92;;;-1.20;99.90;;;;;;5052781;28;20037;-70
2024/02/28 00:43:29;;;;;;;100.72;34.60;;;-1.30;99.90;;;;;;5052793;28;20086;-70
2024/02/28 00:45:55;;;;;;;97.28;34.45;;;-1.20;99.90;;;;;;5052464;28;20079;-70
2024/02/28 00:48:22;;;;;;;106.47;35.33;;;-1.20;99.90;;;;;;5052243;28;20069;-70
2024/02/28 00:50:47;;;;;;;116.78;36.70;;;-1.20;99.90;;;;;;5052633;28;20078;-70
2024/02/28 00:53:13;;;;;;;100.57;33.63;;;-1.10;99.90;;;;;;5052677;28;20083;-70
2024/02/28 00:55:39;;;;;;;123.63;38.50;;;-1.10;99.90;;;;;;5054273;28;20033;-70
2024/02/28 00:58:04;;;;;;;114.82;37.83;;;-1.00;99.90;;;;;;5055802;28;20116;-70
2024/02/28 01:00:30;;;;;;;112.00;37.78;;;-0.90;99.90;;;;;;5056168;28;20032;-70
2024/02/28 01:02:56;;;;;;;122.65;38.38;;;-0.90;99.90;;;;;;5056362;28;20025;-70
2024/02/28 01:05:21;;;;;;;118.82;40.67;;;-1.00;99.90;;;;;;5056346;28;20029;-70
2024/02/28 01:07:47;;;;;;;131.20;39.42;;;-0.90;99.90;;;;;;5056284;28;20033;-72
2024/02/28 01:10:12;;;;;;;118.35;38.58;;;-0.90;99.90;;;;;;5055966;28;20372;-70
2024/02/28 01:12:38;;;;;;;107.45;37.90;;;-0.90;99.90;;;;;;5055625;28;20025;-70
2024/02/28 01:15:04;;;;;;;106.63;37.10;;;-1.00;99.90;;;;;;5056059;28;20128;-70
2024/02/28 01:17:30;;;;;;;97.35;37.55;;;-1.00;99.90;;;;;;5055981;28;20390;-71
2024/02/28 01:19:56;;;;;;;115.55;38.22;;;-1.00;99.90;;;;;;5055974;28;20089;-71
2024/02/28 01:22:22;;;;;;;107.57;37.55;;;-1.10;99.90;;;;;;5055807;28;20032;-71
2024/02/28 01:24:47;;;;;;;108.65;37.95;;;-1.20;99.90;;;;;;5055745;28;20368;-71
2024/02/28 01:27:13;;;;;;;119.00;39.40;;;-1.20;99.90;;;;;;5055207;28;20029;-72
2024/02/28 01:29:38;;;;;;;109.25;38.92;;;-1.20;99.90;;;;;;5055563;28;20025;-71
2024/02/28 01:32:04;;;;;;;103.57;37.63;;;-1.20;99.90;;;;;;5055318;28;20021;-71
2024/02/28 01:34:30;;;;;;;98.20;35.15;;;-1.20;99.90;;;;;;5055578;28;20033;-71
2024/02/28 01:36:55;;;;;;;107.85;38.65;;;-1.20;99.90;;;;;;5055529;28;20394;-71
2024/02/28 01:39:23;;;;;;;124.97;42.03;;;-1.20;99.90;;;;;;5055446;28;20159;-71
2024/02/28 01:41:54;;;;;;;106.32;37.00;;;-1.10;99.90;;;;;;5055494;28;20056;-71
2024/02/28 01:44:20;;;;;;;125.85;42.50;;;-1.10;99.90;;;;;;5055450;28;20086;-71
2024/02/28 01:46:46;;;;;;;133.05;42.42;;;-1.10;99.90;;;;;;5055054;28;20033;-71
2024/02/28 01:49:12;;;;;;;129.60;41.78;;;-1.00;99.90;;;;;;5054996;28;20479;-71
2024/02/28 01:51:38;;;;;;;182.73;45.80;;;-1.00;99.90;;;;;;5055346;28;20075;-71
2024/02/28 01:54:04;;;;;;;155.38;45.40;;;-1.00;99.90;;;;;;5055390;28;20075;-71
2024/02/28 01:56:30;;;;;;;147.40;44.30;;;-0.90;99.90;;;;;;5055323;28;20426;-71
2024/02/28 01:58:57;;;;;;;162.10;46.72;;;-0.90;99.90;;;;;;5055261;28;20483;-71
2024/02/28 02:01:23;;;;;;;145.20;43.40;;;-0.80;99.90;;;;;;5055127;28;20025;-69
2024/02/28 02:03:48;;;;;;;151.43;44.85;;;-0.70;99.90;;;;;;5054967;28;20101;-69
2024/02/28 02:06:14;;;;;;;157.55;44.83;;;-0.70;99.90;;;;;;5055014;28;20039;-69
2024/02/28 02:08:41;;;;;;;150.38;46.65;;;-0.60;99.90;;;;;;5054843;28;20032;-69
2024/02/28 02:11:06;;;;;;;157.73;46.15;;;-0.50;99.90;;;;;;5055063;28;20487;-69
2024/02/28 02:13:32;;;;;;;148.15;45.40;;;-0.50;99.90;;;;;;5054654;28;20032;-70
2024/02/28 02:15:58;;;;;;;232.75;52.80;;;-0.40;99.90;;;;;;5054783;28;20033;-70
2024/02/28 02:18:23;;;;;;;342.60;56.05;;;-0.30;99.90;;;;;;5054740;28;20107;-69
2024/02/28 02:20:54;;;;;;;323.83;55.40;;;-0.20;99.90;;;;;;5054721;28;20060;-70
2024/02/28 02:23:19;;;;;;;368.73;58.80;;;-0.20;99.90;;;;;;5054567;28;20021;-70
2024/02/28 02:25:46;;;;;;;520.58;71.53;;;-0.10;99.90;;;;;;5054487;28;20039;-69
2024/02/28 02:28:12;;;;;;;293.52;56.15;;;-0.10;99.90;;;;;;5054515;28;20084;-69
2024/02/28 02:30:39;;;;;;;350.35;57.20;;;-0.10;99.90;;;;;;5054697;28;20475;-70
2024/02/28 02:33:05;;;;;;;405.02;60.03;;;0.00;99.90;;;;;;5054249;28;20025;-69
2024/02/28 02:35:31;;;;;;;309.50;56.63;;;0.00;99.90;;;;;;5054475;28;20033;-70
2024/02/28 02:37:57;;;;;;;361.83;60.60;;;0.00;99.90;;;;;;5054117;28;20506;-69
2024/02/28 02:40:22;;;;;;;436.35;61.78;;;0.00;99.90;;;;;;5054321;28;20107;-70
2024/02/28 02:42:48;;;;;;;319.35;57.03;;;0.10;99.90;;;;;;5054218;28;20062;-70
2024/02/28 02:45:14;;;;;;;385.77;62.78;;;0.10;99.90;;;;;;5054202;28;20033;-70
2024/02/28 02:47:39;;;;;;;506.55;67.65;;;0.20;99.90;;;;;;5053911;28;20049;-69
2024/02/28 02:50:06;;;;;;;459.55;65.07;;;0.30;99.90;;;;;;5054253;28;20052;-69
2024/02/28 02:52:32;;;;;;;298.77;56.72;;;0.30;99.90;;;;;;5054186;28;20021;-69
2024/02/28 02:54:58;;;;;;;383.17;60.70;;;0.30;99.90;;;;;;5054141;28;20074;-69
2024/02/28 02:57:23;;;;;;;306.15;58.17;;;0.30;99.90;;;;;;5053868;28;20078;-69
2024/02/28 02:59:49;;;;;;;400.80;61.10;;;0.30;99.90;;;;;;5053562;28;20021;-69
2024/02/28 03:02:14;;;;;;;317.63;57.97;;;0.40;99.90;;;;;;5053559;28;20112;-69
2024/02/28 03:04:40;;;;;;;477.98;64.70;;;0.40;99.90;;;;;;5053521;28;20029;-69
2024/02/28 03:07:06;;;;;;;448.60;64.82;;;0.40;99.90;;;;;;5053960;28;20409;-69
2024/02/28 03:09:31;;;;;;;276.75;51.55;;;0.50;99.90;;;;;;5053507;28;20025;-69
2024/02/28 03:11:57;;;;;;;385.75;58.50;;;0.50;99.90;;;;;;5053361;28;20116;-68
2024/02/28 03:14:25;;;;;;;446.63;65.65;;;0.50;99.90;;;;;;5053834;28;20116;-69
2024/02/28 03:16:50;;;;;;;238.60;51.28;;;0.60;99.90;;;;;;5053623;28;20031;-69
2024/02/28 03:19:16;;;;;;;470.83;63.17;;;0.60;99.90;;;;;;5052853;28;20025;-69
2024/02/28 03:21:42;;;;;;;364.50;55.22;;;0.60;99.90;;;;;;5053726;28;20025;-69
2024/02/28 03:24:07;;;;;;;294.55;54.17;;;0.60;99.90;;;;;;5053592;28;20037;-69
2024/02/28 03:26:33;;;;;;;471.00;62.88;;;0.60;99.90;;;;;;5053588;28;20116;-69
2024/02/28 03:28:59;;;;;;;476.08;62.38;;;0.70;99.90;;;;;;5053365;28;20040;-69
2024/02/28 03:31:25;;;;;;;459.67;64.95;;;0.70;99.90;;;;;;5053408;28;20482;-69
2024/02/28 03:33:51;;;;;;;323.75;57.38;;;0.70;99.90;;;;;;5053026;28;20478;-69
2024/02/28 03:36:17;;;;;;;587.15;76.18;;;0.70;99.90;;;;;;5053014;28;20025;-69
2024/02/28 03:38:42;;;;;;;280.73;53.80;;;0.70;99.90;;;;;;5053387;28;20036;-69
2024/02/28 03:41:08;;;;;;;479.20;68.47;;;0.70;99.90;;;;;;5053028;28;20602;-69
2024/02/28 03:43:34;;;;;;;415.00;62.80;;;0.70;99.90;;;;;;5052970;28;20025;-69
2024/02/28 03:46:00;;;;;;;469.40;64.63;;;0.70;99.90;;;;;;5053306;28;20108;-69
2024/02/28 03:48:25;;;;;;;420.67;62.55;;;0.80;99.90;;;;;;5052731;28;20049;-70
2024/02/28 03:50:51;;;;;;;462.45;72.82;;;0.80;99.90;;;;;;5053280;28;20021;-70
2024/02/28 03:53:17;;;;;;;402.13;60.35;;;0.80;99.90;;;;;;5053222;28;20025;-70
2024/02/28 03:55:44;;;;;;;499.48;65.53;;;0.80;99.90;;;;;;5053203;28;20033;-69
2024/02/28 03:58:10;;;;;;;639.17;81.45;;;0.90;99.90;;;;;;5052909;28;20035;-70
2024/02/28 04:00:36;;;;;;;450.33;66.00;;;0.90;99.90;;;;;;5053220;28;20115;-69
2024/02/28 04:03:03;;;;;;;578.30;77.50;;;0.90;99.90;;;;;;5052925;28;20458;-69
2024/02/28 04:05:29;;;;;;;587.65;77.57;;;0.90;99.90;;;;;;5052788;28;20116;-69
2024/02/28 04:07:54;;;;;;;578.83;72.35;;;1.00;99.90;;;;;;5052943;28;20021;-69
2024/02/28 04:10:20;;;;;;;510.08;67.82;;;1.00;99.90;;;;;;5053010;28;20033;-69
2024/02/28 04:12:46;;;;;;;599.90;76.15;;;1.00;99.90;;;;;;5053078;28;20060;-70
2024/02/28 04:15:13;;;;;;;540.58;70.78;;;1.00;99.90;;;;;;5052982;28;20032;-69
2024/02/28 04:17:39;;;;;;;436.20;67.70;;;1.00;99.90;;;;;;5053136;28;20033;-69
2024/02/28 04:20:10;;;;;;;472.00;68.18;;;1.00;99.90;;;;;;5052955;28;20029;-69
2024/02/28 04:22:36;;;;;;;344.63;59.75;;;1.00;99.90;;;;;;5052901;28;20032;-69
2024/02/28 04:25:04;;;;;;;447.75;68.10;;;1.00;99.90;;;;;;5052919;28;20025;-69
2024/02/28 04:27:29;;;;;;;527.33;71.72;;;1.10;99.90;;;;;;5052645;28;20082;-69
2024/02/28 04:29:55;;;;;;;579.08;71.32;;;1.10;99.90;;;;;;5053355;28;20032;-69
2024/02/28 04:32:20;;;;;;;492.58;70.70;;;1.10;99.90;;;;;;5056739;28;20029;-69
2024/02/28 04:34:46;;;;;;;407.67;65.60;;;1.10;99.90;;;;;;5056212;28;20021;-69
2024/02/28 04:37:11;;;;;;;400.73;65.90;;;1.10;99.90;;;;;;5056630;28;20075;-69
2024/02/28 04:39:37;;;;;;;418.13;67.50;;;1.20;99.90;;;;;;5056648;28;20432;-70
2024/02/28 04:42:03;;;;;;;523.20;77.97;;;1.20;99.90;;;;;;5056211;28;20029;-69
2024/02/28 04:44:29;;;;;;;540.80;76.35;;;1.30;99.90;;;;;;5056261;28;20080;-69
2024/02/28 04:46:54;;;;;;;471.25;72.82;;;1.30;99.90;;;;;;5056184;28;20028;-69
2024/02/28 04:49:20;;;;;;;471.75;75.78;;;1.30;99.90;;;;;;5056127;28;20060;-69
2024/02/28 04:51:46;;;;;;;423.08;68.75;;;1.30;99.90;;;;;;5056301;28;20501;-69
2024/02/28 04:54:11;;;;;;;468.38;75.53;;;1.30;99.90;;;;;;5056193;28;20139;-69
2024/02/28 04:56:41;;;;;;;597.25;85.05;;;1.40;99.90;;;;;;5056316;28;20039;-69
2024/02/28 04:59:08;;;;;;;506.35;77.43;;;1.40;99.90;;;;;;5056306;28;20394;-69
2024/02/28 05:01:35;;;;;;;479.80;74.30;;;1.30;99.90;;;;;;5056461;28;20040;-69
2024/02/28 05:04:00;;;;;;;410.70;70.15;;;1.30;99.90;;;;;;5055940;28;20071;-69
2024/02/28 05:06:26;;;;;;;425.63;71.00;;;1.30;99.90;;;;;;5056087;28;20025;-69
2024/02/28 05:08:51;;;;;;;528.17;81.10;;;1.30;99.90;;;;;;5055663;28;20474;-69
2024/02/28 05:11:17;;;;;;;366.80;68.63;;;1.30;99.90;;;;;;5055947;28;20033;-69
2024/02/28 05:13:43;;;;;;;387.30;71.60;;;1.30;99.90;;;;;;5055580;28;20040;-69
2024/02/28 05:16:16;;;;;;;431.90;77.25;;;1.30;99.90;;;;;;5056069;28;20072;-69
2024/02/28 05:18:43;;;;;;;485.48;74.88;;;1.30;99.90;;;;;;5055877;28;20433;-69
2024/02/28 05:21:09;;;;;;;357.77;69.68;;;1.30;99.90;;;;;;5055858;28;20036;-69
2024/02/28 05:23:34;;;;;;;431.42;73.05;;;1.30;99.90;;;;;;5055905;28;20387;-69
2024/02/28 05:26:03;;;;;;;441.10;77.13;;;1.40;99.90;;;;;;5055402;28;20112;-69
2024/02/28 05:28:30;;;;;;;457.20;73.28;;;1.30;99.90;;;;;;5055351;28;20028;-69
2024/02/28 05:30:56;;;;;;;384.90;71.13;;;1.40;99.90;;;;;;5055626;28;20075;-69
2024/02/28 05:33:22;;;;;;;436.42;70.00;;;1.40;99.90;;;;;;5055541;28;20033;-69
2024/02/28 05:35:47;;;;;;;421.00;68.88;;;1.40;99.90;;;;;;5055186;28;20051;-69
2024/02/28 05:38:13;;;;;;;493.65;77.47;;;1.40;99.90;;;;;;5055537;28;20528;-69
2024/02/28 05:40:40;;;;;;;362.95;65.38;;;1.40;99.90;;;;;;5055164;28;20029;-69
2024/02/28 05:43:06;;;;;;;425.33;68.60;;;1.40;99.90;;;;;;5055164;28;20067;-69
2024/02/28 05:45:32;;;;;;;402.50;69.53;;;1.40;99.90;;;;;;5055325;28;20435;-69
2024/02/28 05:47:57;;;;;;;501.80;75.03;;;1.40;99.90;;;;;;5054649;28;20049;-69
2024/02/28 05:50:23;;;;;;;454.75;71.43;;;1.40;99.90;;;;;;5054888;28;20024;-69
2024/02/28 05:52:48;;;;;;;401.67;69.35;;;1.40;99.90;;;;;;5055158;28;20025;-69
2024/02/28 05:55:14;;;;;;;518.38;79.45;;;1.50;99.90;;;;;;5055201;28;20036;-69
2024/02/28 05:57:39;;;;;;;535.53;78.93;;;1.50;99.90;;;;;;5055258;28;20111;-69
2024/02/28 06:00:09;;;;;;;597.40;89.40;;;1.50;99.90;;;;;;5055162;28;20052;-69
2024/02/28 06:02:37;;;;;;;597.65;85.63;;;1.50;99.90;;;;;;5055113;28;20027;-69
2024/02/28 06:05:03;;;;;;;469.52;76.90;;;1.60;99.90;;;;;;5055220;28;20029;-69
2024/02/28 06:07:28;;;;;;;401.10;67.97;;;1.60;99.90;;;;;;5054965;28;20441;-69
2024/02/28 06:09:54;;;;;;;459.13;70.82;;;1.60;99.90;;;;;;5054811;28;20065;-69
2024/02/28 06:12:19;;;;;;;441.38;73.07;;;1.70;99.90;;;;;;5054767;28;20029;-69
2024/02/28 06:14:45;;;;;;;435.90;72.32;;;1.70;99.90;;;;;;5054474;28;20075;-70
2024/02/28 06:17:11;;;;;;;459.88;75.50;;;1.70;99.90;;;;;;5054406;28;20028;-69
2024/02/28 06:19:36;;;;;;;421.30;72.93;;;1.70;99.90;;;;;;5054832;28;20364;-69
2024/02/28 06:22:02;;;;;;;412.55;71.97;;;1.80;99.90;;;;;;5054736;28;20021;-69
2024/02/28 06:24:27;;;;;;;409.73;71.68;;;1.80;99.90;;;;;;5054595;28;20112;-69
2024/02/28 06:26:53;;;;;;;397.75;70.72;;;1.80;99.90;;;;;;5054540;28;20048;-69
2024/02/28 06:29:20;;;;;;;381.60;72.75;;;1.80;99.90;;;;;;5054179;28;20025;-69
2024/02/28 06:31:51;;;;;;;364.33;66.38;;;1.90;99.90;;;;;;5054475;28;20031;-69
2024/02/28 06:34:18;;;;;;;371.05;69.70;;;1.90;99.90;;;;;;5054034;28;20029;-69
2024/02/28 06:36:44;;;;;;;364.90;69.80;;;1.90;99.90;;;;;;5054357;28;20032;-69
2024/02/28 06:39:09;;;;;;;376.17;68.25;;;2.00;99.90;;;;;;5053971;28;20037;-69
2024/02/28 06:41:35;;;;;;;393.15;70.45;;;2.00;99.90;;;;;;5053979;28;20040;-69
2024/02/28 06:44:01;;;;;;;362.83;71.72;;;2.00;99.90;;;;;;5053987;28;20033;-69
2024/02/28 06:46:26;;;;;;;352.73;70.53;;;2.00;99.90;;;;;;5053847;28;20110;-69
2024/02/28 06:48:52;;;;;;;364.73;70.60;;;2.10;99.90;;;;;;5053712;28;20044;-70
2024/02/28 06:51:18;;;;;;;382.48;73.10;;;2.10;99.90;;;;;;5054120;28;20021;-69
2024/02/28 06:53:43;;;;;;;375.05;71.43;;;2.10;99.90;;;;;;5053359;28;20029;-69
2024/02/28 06:56:09;;;;;;;361.98;71.28;;;2.10;99.90;;;;;;5053949;28;20036;-69
2024/02/28 06:58:35;;;;;;;402.65;71.90;;;2.10;99.90;;;;;;5053795;28;20021;-70
2024/02/28 07:01:01;;;;;;;375.45;72.85;;;2.20;99.90;;;;;;5053322;28;20036;-69
2024/02/28 07:03:26;;;;;;;377.38;73.10;;;2.30;99.90;;;;;;5053857;28;20029;-70
2024/02/28 07:05:53;;;;;;;398.50;75.20;;;2.30;99.90;;;;;;5052946;28;20118;-69
2024/02/28 07:08:20;;;;;;;350.35;73.13;;;2.30;99.90;;;;;;5052820;28;20029;-69
2024/02/28 07:10:49;;;;;;;341.58;70.07;;;2.40;99.90;;;;;;5053115;28;20475;-69
2024/02/28 07:13:15;;;;;;;359.80;73.90;;;2.30;99.90;;;;;;5053629;28;20025;-69
2024/02/28 07:15:41;;;;;;;342.88;71.68;;;2.30;99.90;;;;;;5053306;28;20053;-69
2024/02/28 07:18:07;;;;;;;355.45;72.35;;;2.30;99.90;;;;;;5053212;28;20368;-69
2024/02/28 07:20:33;;;;;;;339.92;73.88;;;2.30;99.90;;;;;;5053279;28;20078;-70
2024/02/28 07:22:59;;;;;;;332.73;72.15;;;2.30;99.90;;;;;;5053244;28;20082;-72
2024/02/28 07:25:24;;;;;;;320.85;69.30;;;2.40;99.90;;;;;;5053149;28;20037;-71
2024/02/28 07:27:50;;;;;;;329.33;69.75;;;2.50;99.90;;;;;;5050862;28;20033;-72
2024/02/28 07:30:16;;;;;;;314.98;67.40;;;2.40;99.90;;;;;;5053030;28;20029;-72
2024/02/28 07:32:41;;;;;;;306.98;66.40;;;2.40;99.90;;;;;;5053299;28;20557;-72
2024/02/28 07:35:07;;;;;;;306.83;65.50;;;2.40;99.90;;;;;;5052946;28;20075;-72
2024/02/28 07:37:33;;;;;;;291.38;66.82;;;2.50;99.90;;;;;;5052714;28;20070;-72
2024/02/28 07:39:59;;;;;;;273.70;62.58;;;2.50;99.90;;;;;;5053334;28;20504;-73
2024/02/28 07:42:25;;;;;;;287.38;64.90;;;2.40;99.90;;;;;;5053239;28;20368;-74
2024/02/28 07:44:56;;;;;;;291.75;64.15;;;2.50;99.90;;;;;;5052766;28;20029;-72
2024/02/28 07:47:22;;;;;;;298.40;64.63;;;2.50;99.90;;;;;;5052363;28;20047;-72
2024/02/28 07:49:48;;;;;;;281.00;62.33;;;2.40;99.90;;;;;;5053149;28;20368;-73
2024/02/28 07:52:14;;;;;;;294.60;66.40;;;2.40;99.90;;;;;;5052880;28;20044;-73
2024/02/28 07:54:43;;;;;;;296.48;67.25;;;2.50;99.90;;;;;;5052701;28;20033;-73
2024/02/28 07:57:09;;;;;;;268.65;64.10;;;2.50;99.90;;;;;;5053051;28;20029;-72
2024/02/28 07:59:42;;;;;;;280.95;63.15;;;2.50;99.90;;;;;;5052807;28;20479;-72
2024/02/28 08:02:08;;;;;;;288.05;63.70;;;2.60;99.90;;;;;;5053064;28;20062;-72
2024/02/28 08:04:34;;;;;;;268.02;66.40;;;2.70;99.90;;;;;;5054736;28;20053;-72
2024/02/28 08:07:00;;;;;;;250.55;64.20;;;2.80;99.90;;;;;;5056931;28;20040;-73
2024/02/28 08:09:25;;;;;;;253.90;63.55;;;2.80;99.90;;;;;;5056678;28;20029;-73
2024/02/28 08:11:51;;;;;;;270.55;62.58;;;2.80;99.90;;;;;;5056953;28;20037;-72
2024/02/28 08:14:17;;;;;;;273.02;62.58;;;2.90;99.90;;;;;;5056032;28;20025;-74
2024/02/28 08:16:43;;;;;;;261.95;61.85;;;3.00;99.90;;;;;;5055531;28;20032;-72
2024/02/28 08:19:08;;;;;;;259.70;62.13;;;3.10;99.90;;;;;;5055069;28;20029;-73
2024/02/28 08:21:34;;;;;;;247.18;62.22;;;3.20;99.90;;;;;;5055297;28;20040;-73
2024/02/28 08:24:02;;;;;;;263.95;63.42;;;3.20;99.90;;;;;;5056175;28;20033;-72
2024/02/28 08:26:28;;;;;;;260.17;64.15;;;3.20;99.90;;;;;;5056767;28;20047;-73
2024/02/28 08:28:53;;;;;;;261.35;63.85;;;3.20;99.90;;;;;;5056380;28;20025;-73
2024/02/28 08:31:19;;;;;;;254.10;61.47;;;3.30;99.90;;;;;;5056501;28;20033;-73
2024/02/28 08:33:45;;;;;;;262.23;62.10;;;3.30;99.90;;;;;;5056488;28;20029;-73
2024/02/28 08:36:10;;;;;;;258.77;60.53;;;3.30;99.90;;;;;;5058628;28;20041;-72
2024/02/28 08:38:38;;;;;;;243.50;61.95;;;3.30;99.90;;;;;;5056566;28;20021;-73
2024/02/28 08:41:04;;;;;;;250.82;61.95;;;3.30;99.90;;;;;;5055974;28;20029;-73
2024/02/28 08:43:30;;;;;;;254.30;61.92;;;3.40;99.90;;;;;;5056655;28;20032;-73
2024/02/28 08:45:56;;;;;;;257.77;63.10;;;3.40;99.90;;;;;;5056364;28;20475;-72
2024/02/28 08:48:22;;;;;;;254.52;63.72;;;3.30;99.90;;;;;;5056011;28;20053;-73
2024/02/28 08:50:48;;;;;;;256.45;62.75;;;3.40;99.90;;;;;;5056150;28;20487;-73
2024/02/28 08:53:14;;;;;;;262.50;63.47;;;3.50;99.90;;;;;;5055677;28;20049;-73
2024/02/28 08:55:40;;;;;;;261.02;61.88;;;3.50;99.90;;;;;;5056287;28;20430;-73
2024/02/28 08:58:05;;;;;;;242.32;61.13;;;3.50;99.90;;;;;;5055989;28;20037;-74
2024/02/28 09:00:31;;;;;;;242.98;61.80;;;3.60;99.90;;;;;;5055938;28;20037;-75
2024/02/28 09:02:57;;;;;;;220.75;60.45;;;3.70;99.90;;;;;;5056011;28;20029;-73
2024/02/28 09:05:23;;;;;;;214.73;57.47;;;3.60;99.90;;;;;;5055672;28;20033;-73
2024/02/28 09:07:51;;;;;;;222.80;60.90;;;3.70;99.90;;;;;;5055257;28;20245;-73
2024/02/28 09:10:23;;;;;;;213.73;56.72;;;3.70;99.90;;;;;;5055890;28;20510;-73
2024/02/28 09:12:50;;;;;;;219.15;56.45;;;3.70;99.90;;;;;;5055676;28;20144;-73
2024/02/28 09:15:15;;;;;;;188.13;51.33;;;3.80;99.90;;;;;;5055565;28;20029;-73
2024/02/28 09:17:41;;;;;;;195.65;52.80;;;3.80;99.90;;;;;;5055184;28;20033;-73
2024/02/28 09:20:08;;;;;;;175.23;53.35;;;3.80;99.90;;;;;;5055179;28;20079;-74
2024/02/28 09:22:34;;;;;;;172.85;53.17;;;3.90;99.90;;;;;;5055691;28;20510;-74
2024/02/28 09:25:03;;;;;;;164.52;51.97;;;4.00;99.90;;;;;;5055709;28;20025;-74
2024/02/28 09:27:29;;;;;;;171.30;51.13;;;4.00;99.90;;;;;;5056037;28;20036;-73
2024/02/28 09:29:55;;;;;;;175.20;51.88;;;4.00;99.90;;;;;;5055389;28;20083;-74
2024/02/28 09:32:21;;;;;;;158.77;49.97;;;4.20;99.90;;;;;;5055776;28;20037;-74
2024/02/28 09:34:47;;;;;;;156.55;48.42;;;4.20;99.90;;;;;;5057130;28;20025;-74
2024/02/28 09:37:13;;;;;;;145.65;48.53;;;4.30;99.90;;;;;;5058059;28;20041;-73
2024/02/28 09:39:40;;;;;;;140.73;46.42;;;4.50;99.90;;;;;;5057730;28;20033;-75
2024/02/28 09:42:07;;;;;;;149.25;46.95;;;4.40;99.90;;;;;;5059097;28;20071;-74
2024/02/28 09:44:34;;;;;;;131.82;46.78;;;4.50;99.90;;;;;;5059336;28;20032;-73
2024/02/28 09:47:00;;;;;;;140.90;45.97;;;4.60;99.90;;;;;;5057491;28;20090;-74
2024/02/28 09:49:28;;;;;;;136.05;44.13;;;4.60;99.90;;;;;;5055480;28;20491;-75
2024/02/28 09:51:56;;;;;;;127.45;44.53;;;4.70;99.90;;;;;;5055577;28;20472;-76
2024/02/28 09:54:22;;;;;;;129.13;43.20;;;4.80;99.90;;;;;;5054973;28;20504;-73
2024/02/28 09:56:48;;;;;;;113.93;41.70;;;4.90;99.90;;;;;;5054887;28;20052;-73
2024/02/28 09:59:17;;;;;;;123.75;44.85;;;4.90;99.90;;;;;;5054912;28;20025;-74
2024/02/28 10:01:44;;;;;;;126.43;46.08;;;4.90;99.90;;;;;;5054989;28;20029;-74
2024/02/28 10:04:12;;;;;;;119.63;45.58;;;5.00;99.90;;;;;;5055075;28;20115;-72
2024/02/28 10:06:39;;;;;;;116.93;41.15;;;5.10;99.90;;;;;;5054370;28;20056;-74
2024/02/28 10:09:05;;;;;;;121.03;44.22;;;5.20;99.90;;;;;;5054708;28;20029;-74
2024/02/28 10:11:31;;;;;;;111.75;42.70;;;5.40;99.90;;;;;;5054515;28;20104;-73
2024/02/28 10:13:56;;;;;;;119.97;42.80;;;5.40;99.90;;;;;;5054368;28;20025;-73
2024/02/28 10:16:23;;;;;;;115.28;41.83;;;5.50;99.90;;;;;;5054234;28;20056;-72
2024/02/28 10:18:48;;;;;;;109.07;39.75;;;5.60;99.90;;;;;;5054376;28;20040;-72
2024/02/28 10:21:15;;;;;;;110.30;39.90;;;5.80;99.90;;;;;;5054282;28;20025;-72
2024/02/28 10:23:41;;;;;;;114.28;41.53;;;5.70;99.90;;;;;;5054595;28;20057;-73
2024/02/28 10:26:11;;;;;;;115.60;43.28;;;5.60;99.90;;;;;;5054277;28;20033;-73
2024/02/28 10:28:38;;;;;;;113.65;41.92;;;5.60;99.90;;;;;;5053356;28;20028;-74
2024/02/28 10:31:05;;;;;;;103.45;37.22;;;5.80;99.90;;;;;;5054413;28;20025;-74
2024/02/28 10:33:33;;;;;;;91.60;36.08;;;5.80;99.90;;;;;;5054366;28;20435;-73
2024/02/28 10:35:59;;;;;;;102.78;40.08;;;6.00;99.90;;;;;;5053756;28;20033;-73
2024/02/28 10:38:27;;;;;;;103.00;40.47;;;6.10;99.90;;;;;;5054012;28;20045;-73
2024/02/28 10:40:54;;;;;;;92.90;38.35;;;6.00;99.90;;;;;;5054012;28;20029;-73
2024/02/28 10:43:20;;;;;;;94.28;37.05;;;6.00;99.90;;;;;;5054306;28;20067;-73
2024/02/28 10:45:46;;;;;;;91.32;36.70;;;6.20;99.90;;;;;;5053976;28;20075;-73
2024/02/28 10:48:15;;;;;;;93.40;37.65;;;;;;;;;;5053180;28;20077;-73
2024/02/28 10:50:43;;;;;;;94.28;36.50;;;6.70;99.90;;;;;;5053864;28;20095;-73
2024/02/28 10:53:14;;;;;;;91.32;37.70;;;6.70;99.90;;;;;;5053704;28;20031;-73
2024/02/28 10:55:41;;;;;;;91.10;36.90;;;6.70;99.90;;;;;;5053757;28;20103;-74
2024/02/28 10:58:10;;;;;;;95.20;37.78;;;6.80;99.90;;;;;;5053371;28;20034;-74
2024/02/28 11:00:38;;;;;;;91.80;36.60;;;7.30;99.90;;;;;;5054024;28;20135;-74
2024/02/28 11:03:06;;;;;;;84.38;36.38;;;7.40;99.90;;;;;;5053026;28;20041;-74
2024/02/28 11:05:41;;;;;;;83.82;33.72;;;7.70;96.30;;;;;;5053636;28;20502;-74
2024/02/28 11:08:23;;;;;;;82.43;34.50;;;7.70;92.90;;;;;;5038195;28;20024;-74
2024/02/28 11:10:57;;;;;;;85.22;34.15;;;8.20;55.60;;;;;;5044712;28;20476;-74
2024/02/28 11:13:24;;;;;;;79.82;33.90;;;8.00;49.90;;;;;;5053707;28;20040;-75
2024/02/28 11:15:51;;;;;;;78.38;32.85;;;8.10;34.90;;;;;;5051978;28;20483;-74
2024/02/28 11:18:17;;;;;;;75.68;33.10;;;8.50;23.50;;;;;;5058399;28;20436;-74
2024/02/28 11:20:46;;;;;;;72.10;34.10;;;9.20;8.10;;;;;;5055007;28;20029;-73
2024/02/28 11:23:12;;;;;;;77.72;34.17;;;9.30;1.00;;;;;;5053589;28;20033;-74
2024/02/28 11:25:38;;;;;;;76.15;32.88;;;9.00;1.00;;;;;;5053605;28;20033;-74
2024/02/28 11:28:04;;;;;;;71.13;33.15;;;9.10;1.00;;;;;;5052024;28;20029;-74
2024/02/28 11:30:30;;;;;;;78.70;34.50;;;9.10;1.00;;;;;;5053122;28;20033;-74
2024/02/28 11:32:58;;;;;;;78.72;34.50;;;9.30;1.00;;;;;;5052987;28;20078;-74
2024/02/28 11:35:26;;;;;;;74.35;34.20;;;9.70;1.00;;;;;;5053183;28;20028;-74
2024/02/28 11:37:57;;;;;;;81.50;35.13;;;9.60;1.00;;;;;;5052541;28;20029;-74
2024/02/28 11:40:25;;;;;;;73.47;33.83;;;9.50;1.00;;;;;;5052776;28;20025;-74
2024/02/28 11:42:51;;;;;;;77.75;34.78;;;9.50;1.00;;;;;;5053527;28;20041;-74
2024/02/28 11:45:17;;;;;;;83.13;37.45;;;9.40;1.00;;;;;;5051758;28;20036;-74
2024/02/28 11:47:44;;;;;;;76.97;35.40;;;9.50;1.00;;;;;;5052047;28;20047;-74
2024/02/28 11:50:11;;;;;;;72.18;33.45;;;9.60;1.00;;;;;;5052810;28;20132;-74
2024/02/28 11:52:37;;;;;;;77.78;34.03;;;9.60;1.00;;;;;;5052744;28;20449;-74
2024/02/28 11:55:03;;;;;;;73.85;33.58;;;9.50;1.00;;;;;;5052759;28;20124;-74
2024/02/28 11:57:33;;;;;;;74.90;34.40;;;9.80;1.00;;;;;;5052882;28;20279;-74
2024/02/28 12:00:07;;;;;;;75.18;34.35;;;10.10;1.00;;;;;;5053089;28;20017;-74
2024/02/28 12:02:32;;;;;;;74.18;35.15;;;10.00;1.00;;;;;;5052829;28;20055;-74
2024/02/28 12:05:03;;;;;;;80.88;33.75;;;9.60;1.00;;;;;;5052423;28;20017;-74
2024/02/28 12:07:29;;;;;;;75.07;33.50;;;9.20;1.00;;;;;;5052826;28;20468;-74
2024/02/28 12:09:55;;;;;;;76.05;34.38;;;9.40;1.00;;;;;;5051945;28;20076;-74
2024/02/28 12:12:21;;;;;;;76.65;34.38;;;9.60;1.00;;;;;;5052709;28;20484;-72
2024/02/28 12:14:47;;;;;;;75.22;34.38;;;9.70;1.00;;;;;;5052281;28;20498;-72
2024/02/28 12:17:15;;;;;;;77.97;34.63;;;9.60;1.00;;;;;;5051855;28;20025;-73
2024/02/28 12:19:42;;;;;;;77.50;33.72;;;9.30;1.00;;;;;;5051613;28;20410;-73
2024/02/28 12:22:07;;;;;;;80.00;34.22;;;9.30;1.00;;;;;;5052644;28;20036;-73
2024/02/28 12:24:33;;;;;;;73.90;33.90;;;9.30;1.00;;;;;;5052607;28;20033;-73